Hackberry Slope, NM

2:57 PM MDT on March 29, 2017 (GMT -0600)
2.1 NNW Downtown Carlsbad, NM | | Change Station
Active Advisory: Fire Weather Watch

Elev 3158 ft 32.43 °N, 104.25 °W | Updated 1 second ago

Overcast
Overcast
55.5 °F
Feels Like 55.5 °F
N
4.0
Wind Variable Wind from North
Gusts 15.0 mph

Today
High -- | Low -- °F
--% Chance of Precip.
Yesterday
High -- | Low -- °F
Precip. -- in
Pressure 29.94 in
Visibility 10.0 miles
Clouds Mostly Cloudy 3700 ft
Dew Point 38 °F
Humidity 52%
Rainfall 0.00 in
Snow Depth Not available.
6:48 AM 7:15 PM
Waxing Crescent, 4% visible
METAR KCNM 292053Z AUTO 35023G31KT 10SM BKN037 13/03 A3001 RMK AO2 PK WND 35033/1955 SLP139 T01280028 51008 PWINO
Pressure 29.94 in
Visibility 10.0 miles
Clouds Mostly Cloudy 3700 ft
Dew Point 38 °F
Humidity 52%
Rainfall 0.00 in
Snow Depth Not available.
6:48 AM 7:15 PM
Waxing Crescent, 4% visible
METAR KCNM 292053Z AUTO 35023G31KT 10SM BKN037 13/03 A3001 RMK AO2 PK WND 35033/1955 SLP139 T01280028 51008 PWINO

Get Your Daily Forecast Email!

Thanks for signing up!

Be on the lookout for a verification email in your inbox.

You'll start receiving severe weather alerts in your inbox..

×

10-Day Weather Forecast

Almanac

Astronomy

Mar. 29, 2017 Rise Set
Actual Time
Civil Twilight
Nautical Twilight
Astronomical Twilight
Moon
Length of Visible Light
Length of Day
Tomorrow will be .
, % of the Moon is Illuminated

Today's Extremes

State Highs State Lows

Community

WunderPhotos

Upload Photos

1,962,540 photos uploaded!

WunderBlog® & News

Nearby

Air Quality

  Air Quality AQ Index Pollutant
Not available.

Snow Depth

Station Depth Elevation

Earthquake Activity

City Distance Mag. Time & Date
Minimum magnitude displayed is 2.5.

Earthquake Activity

City Distance Mag. Time & Date
Minimum magnitude displayed is 2.5.

Coastal Water Temperatures

Place Temperature

Stations

Nearby Weather Stations

Station Location Temp. Windchill Dew Point Humidity Wind Precip. Elev Updated Type
                   

Watches & Warnings

Fire Weather Watch
Issued: 1:08 PM MDT Mar. 29, 2017 – National Weather Service

... Fire Weather Watch in effect from Friday afternoon through
Friday evening for low humidity, winds greater than 20 mph, and
very high fire danger...

The National Weather Service in Midland/Odessa has issued a Fire
Weather Watch, which is in effect from Friday afternoon through
Friday evening.

* Wind... west 15 to 30 mph.

* Humidity... 3 to 10 percent.

* Fire danger... very high.

* Impacts... outdoor burning is not recommended.

Precautionary/preparedness actions...

A Fire Weather Watch means that critical fire weather conditions
are forecast to occur.